Time;durP1;ratioP1;P1;durP2;ratioP2;P2;SDS_P1;SDS_P2;PMS_P1;PMS_P2;Temp;Humidity;BMP_temperature;BMP_pressure;BME280_temperature;BME280_humidity;BME280_pressure;Samples;Min_cycle;Max_cycle;Signal;HPM_P1;HPM_P2
2020/12/29 00:01:47;;;;;;;5.60;3.75;;;7.00;82.60;;;;;;5040972;28;20036;-76
2020/12/29 00:04:22;;;;;;;5.18;3.85;;;7.00;82.50;;;;;;5036644;28;20025;-76
2020/12/29 00:06:55;;;;;;;5.63;3.88;;;7.00;82.60;;;;;;5028276;28;20478;-76
2020/12/29 00:09:23;;;;;;;4.80;3.55;;;7.00;82.60;;;;;;5041745;28;20036;-76
2020/12/29 00:11:49;;;;;;;5.63;3.92;;;7.00;82.50;;;;;;5009793;28;20448;-78
2020/12/29 00:14:16;;;;;;;5.20;3.92;;;7.00;82.60;;;;;;5042875;28;21252;-76
2020/12/29 00:16:42;;;;;;;5.80;4.00;;;7.00;82.60;;;;;;5030847;28;20036;-76
2020/12/29 00:19:09;;;;;;;5.25;3.78;;;7.00;82.60;;;;;;5031524;28;20021;-76
2020/12/29 00:21:35;;;;;;;4.93;3.45;;;7.00;82.60;;;;;;5030789;28;20474;-76
2020/12/29 00:24:00;;;;;;;5.57;3.92;;;7.00;82.60;;;;;;5028166;28;20033;-76
2020/12/29 00:26:26;;;;;;;4.93;3.92;;;7.00;82.60;;;;;;5041619;28;20385;-76
2020/12/29 00:28:53;;;;;;;5.55;3.80;;;7.00;82.60;;;;;;5027038;28;20136;-77
2020/12/29 00:31:20;;;;;;;4.95;3.97;;;7.00;82.60;;;;;;5039576;28;20473;-78
2020/12/29 00:33:47;;;;;;;4.82;3.80;;;7.00;82.60;;;;;;5041905;28;20033;-76
2020/12/29 00:36:13;;;;;;;4.95;3.70;;;7.00;82.60;;;;;;5044123;28;20022;-77
2020/12/29 00:38:39;;;;;;;5.50;3.78;;;7.00;82.60;;;;;;5026619;28;20099;-75
2020/12/29 00:41:06;;;;;;;5.53;3.72;;;7.00;82.60;;;;;;5034974;28;20087;-76
2020/12/29 00:43:33;;;;;;;6.03;4.30;;;7.00;82.60;;;;;;5040237;28;20053;-75
2020/12/29 00:45:58;;;;;;;5.65;4.28;;;7.00;82.60;;;;;;5035246;28;20474;-76
2020/12/29 00:48:24;;;;;;;4.70;3.70;;;7.00;82.60;;;;;;5032666;28;20038;-75
2020/12/29 00:50:50;;;;;;;5.20;3.90;;;7.00;82.60;;;;;;5011745;28;20025;-76
2020/12/29 00:53:16;;;;;;;5.45;4.00;;;7.00;82.60;;;;;;5029900;28;20132;-76
2020/12/29 00:55:48;;;;;;;5.70;4.10;;;7.00;82.60;;;;;;5034816;28;20190;-75
2020/12/29 00:58:15;;;;;;;4.72;3.72;;;7.00;82.60;;;;;;5034440;28;20436;-76
2020/12/29 01:00:40;;;;;;;4.82;3.75;;;7.00;82.60;;;;;;5033511;28;20032;-75
2020/12/29 01:03:06;;;;;;;5.38;4.10;;;7.00;82.60;;;;;;5058491;28;20473;-75
2020/12/29 01:05:32;;;;;;;5.20;4.10;;;7.00;82.60;;;;;;5033063;28;20037;-76
2020/12/29 01:08:01;;;;;;;4.88;3.70;;;7.00;82.60;;;;;;5031565;28;20497;-76
2020/12/29 01:10:28;;;;;;;5.25;3.90;;;7.00;82.60;;;;;;5036940;28;20021;-75
2020/12/29 01:13:33;;;;;;;5.30;3.60;;;7.00;83.30;;;;;;5034548;28;20029;-76
2020/12/29 01:16:00;;;;;;;4.63;3.55;;;7.00;82.60;;;;;;5028430;28;20526;-76
2020/12/29 01:18:28;;;;;;;4.82;3.65;;;6.90;82.50;;;;;;5030934;28;20497;-75
2020/12/29 01:20:53;;;;;;;4.57;3.63;;;7.00;82.60;;;;;;5034169;28;20045;-76
2020/12/29 01:23:19;;;;;;;5.00;3.67;;;6.90;82.60;;;;;;5051630;28;20600;-75
2020/12/29 01:25:45;;;;;;;5.25;3.60;;;7.00;82.70;;;;;;5045463;28;20029;-76
2020/12/29 01:28:12;;;;;;;4.93;3.65;;;6.90;82.60;;;;;;5018301;28;20040;-76
2020/12/29 01:30:38;;;;;;;5.32;3.88;;;7.00;82.70;;;;;;5042623;28;20536;-76
2020/12/29 01:33:05;;;;;;;4.30;3.28;;;6.90;82.60;;;;;;5040039;28;20029;-76
2020/12/29 01:35:31;;;;;;;4.75;3.75;;;6.90;82.60;;;;;;5033605;28;20123;-76
2020/12/29 01:37:56;;;;;;;5.00;3.67;;;7.00;82.60;;;;;;5023149;28;20529;-76
2020/12/29 01:40:22;;;;;;;5.22;3.95;;;6.90;82.60;;;;;;5031420;28;20485;-77
2020/12/29 01:42:48;;;;;;;4.18;3.50;;;6.90;82.60;;;;;;5021009;28;20072;-76
2020/12/29 01:45:18;;;;;;;5.70;3.75;;;7.00;82.70;;;;;;5037666;28;20032;-76
2020/12/29 01:47:45;;;;;;;5.32;3.90;;;6.90;82.60;;;;;;5046051;28;20097;-76
2020/12/29 01:50:14;;;;;;;5.15;3.75;;;6.90;82.60;;;;;;5050864;28;20461;-76
2020/12/29 01:52:40;;;;;;;4.30;3.25;;;6.90;82.60;;;;;;5048245;28;20144;-76
2020/12/29 01:55:07;;;;;;;5.10;3.60;;;6.90;82.60;;;;;;5045712;28;20068;-76
2020/12/29 01:57:34;;;;;;;5.18;3.70;;;6.90;82.60;;;;;;5017574;28;20043;-76
2020/12/29 02:00:01;;;;;;;4.45;3.33;;;7.00;82.70;;;;;;5046014;28;20120;-77
2020/12/29 02:02:29;;;;;;;4.53;3.40;;;6.90;82.60;;;;;;5042250;28;20079;-76
2020/12/29 02:04:55;;;;;;;4.95;3.58;;;6.90;82.60;;;;;;5033503;28;20033;-75
2020/12/29 02:07:22;;;;;;;4.80;3.72;;;6.90;82.60;;;;;;5048784;28;20020;-76
2020/12/29 02:09:48;;;;;;;3.88;3.30;;;6.90;82.60;;;;;;5048405;28;20366;-76
2020/12/29 02:12:26;;;;;;;4.40;3.30;;;6.90;82.60;;;;;;5048042;28;20277;-75
2020/12/29 02:14:52;;;;;;;4.47;3.10;;;7.00;82.70;;;;;;5036664;28;20029;-77
2020/12/29 02:17:18;;;;;;;4.85;3.50;;;6.90;82.60;;;;;;5044425;28;20044;-76
2020/12/29 02:19:44;;;;;;;4.43;3.35;;;6.90;82.60;;;;;;5031197;28;20547;-77
2020/12/29 02:22:10;;;;;;;5.30;3.58;;;6.90;82.60;;;;;;5038835;28;20432;-76
2020/12/29 02:24:36;;;;;;;4.78;3.53;;;6.90;82.60;;;;;;5036752;28;20029;-75
2020/12/29 02:27:04;;;;;;;4.80;3.58;;;6.90;82.60;;;;;;5008381;28;20025;-76
2020/12/29 02:29:31;;;;;;;4.78;3.67;;;6.90;82.60;;;;;;5029349;28;20089;-76
2020/12/29 02:31:57;;;;;;;5.10;3.80;;;6.90;82.70;;;;;;5041081;28;20033;-76
2020/12/29 02:34:23;;;;;;;4.93;3.30;;;6.90;82.60;;;;;;5049706;28;20429;-77
2020/12/29 02:36:49;;;;;;;4.90;3.65;;;6.90;82.60;;;;;;5049281;28;20033;-76
2020/12/29 02:39:14;;;;;;;4.85;3.65;;;6.90;82.60;;;;;;5029682;28;20540;-76
2020/12/29 02:41:40;;;;;;;4.90;3.47;;;6.90;82.60;;;;;;5041454;28;20048;-76
2020/12/29 02:44:06;;;;;;;4.13;3.17;;;6.90;82.60;;;;;;5030918;28;20412;-76
2020/12/29 02:46:31;;;;;;;5.55;3.53;;;6.90;82.60;;;;;;5031320;28;20037;-76
2020/12/29 02:48:57;;;;;;;4.78;3.78;;;6.90;82.60;;;;;;5029233;28;20028;-76
2020/12/29 02:51:23;;;;;;;4.53;3.50;;;6.90;82.60;;;;;;5042942;28;20385;-76
2020/12/29 02:53:49;;;;;;;5.13;3.50;;;6.90;82.60;;;;;;5036561;28;20033;-76
2020/12/29 02:56:20;;;;;;;4.40;3.40;;;6.90;82.60;;;;;;5024688;28;20038;-76
2020/12/29 02:58:46;;;;;;;4.68;3.75;;;6.90;82.60;;;;;;5027407;28;20035;-76
2020/12/29 03:01:12;;;;;;;4.40;3.60;;;6.90;82.60;;;;;;5031388;28;20033;-76
2020/12/29 03:03:37;;;;;;;4.57;3.47;;;6.80;82.60;;;;;;5031908;28;20492;-76
2020/12/29 03:06:03;;;;;;;5.68;3.90;;;6.90;82.60;;;;;;5028851;28;20029;-76
2020/12/29 03:08:29;;;;;;;5.00;3.63;;;6.90;82.60;;;;;;5007264;28;20048;-76
2020/12/29 03:10:54;;;;;;;4.57;3.80;;;6.90;82.60;;;;;;5040196;28;20037;-76
2020/12/29 03:13:20;;;;;;;5.22;4.22;;;6.90;82.60;;;;;;5041253;28;20057;-76
2020/12/29 03:15:46;;;;;;;4.70;3.50;;;6.90;82.60;;;;;;5026042;28;20024;-76
2020/12/29 03:18:11;;;;;;;6.20;3.88;;;6.80;82.60;;;;;;5014153;28;20040;-76
2020/12/29 03:20:37;;;;;;;6.50;4.05;;;6.90;82.60;;;;;;5022576;28;20038;-76
2020/12/29 03:23:03;;;;;;;5.30;4.03;;;6.80;82.60;;;;;;5033656;28;20040;-76
2020/12/29 03:25:28;;;;;;;5.10;3.92;;;6.90;82.70;;;;;;5032597;28;20393;-76
2020/12/29 03:27:54;;;;;;;5.55;4.32;;;6.90;82.70;;;;;;5036775;28;20068;-76
2020/12/29 03:30:20;;;;;;;5.07;4.10;;;6.80;82.60;;;;;;5035120;28;20044;-76
2020/12/29 03:32:45;;;;;;;4.95;3.70;;;6.80;82.60;;;;;;5027646;28;20043;-76
2020/12/29 03:35:11;;;;;;;4.78;3.85;;;6.80;82.60;;;;;;5046572;28;20075;-76
2020/12/29 03:37:36;;;;;;;4.68;3.60;;;6.80;82.60;;;;;;5024304;28;20033;-76
2020/12/29 03:40:02;;;;;;;4.80;3.80;;;6.80;82.60;;;;;;5028576;28;20041;-76
2020/12/29 03:42:29;;;;;;;4.65;3.80;;;6.90;82.70;;;;;;5041222;28;20489;-76
2020/12/29 03:44:54;;;;;;;5.00;3.53;;;6.80;82.60;;;;;;5026739;28;20501;-76
2020/12/29 03:47:20;;;;;;;4.88;3.67;;;6.90;82.70;;;;;;5042086;28;20021;-76
2020/12/29 03:49:47;;;;;;;4.90;3.80;;;6.80;82.60;;;;;;5033903;28;20040;-76
2020/12/29 03:52:12;;;;;;;5.88;3.92;;;6.80;82.60;;;;;;5013226;28;20033;-76
2020/12/29 03:54:38;;;;;;;5.28;4.13;;;6.80;82.60;;;;;;5023201;28;20052;-76
2020/12/29 03:57:04;;;;;;;6.03;4.60;;;6.90;82.70;;;;;;5025497;28;20033;-76
2020/12/29 03:59:29;;;;;;;4.60;3.63;;;6.80;82.60;;;;;;5016028;28;20453;-76
2020/12/29 04:01:55;;;;;;;4.63;3.60;;;6.80;82.60;;;;;;5019515;28;20504;-76
2020/12/29 04:04:21;;;;;;;5.40;3.97;;;6.80;82.60;;;;;;5054341;28;20040;-76
2020/12/29 04:06:46;;;;;;;4.88;3.72;;;6.80;82.60;;;;;;5027011;28;20080;-76
2020/12/29 04:09:12;;;;;;;5.28;4.03;;;6.80;82.60;;;;;;5028231;28;20868;-76
2020/12/29 04:11:38;;;;;;;5.10;3.70;;;6.80;82.60;;;;;;5042209;28;20040;-75
2020/12/29 04:14:04;;;;;;;4.82;4.00;;;6.80;82.60;;;;;;5013212;28;20037;-75
2020/12/29 04:16:30;;;;;;;5.00;3.80;;;6.80;82.60;;;;;;5036309;28;20029;-75
2020/12/29 04:18:55;;;;;;;5.95;4.25;;;6.80;82.60;;;;;;5033260;28;20044;-77
2020/12/29 04:21:21;;;;;;;5.35;4.07;;;6.80;82.60;;;;;;5029742;28;20033;-76
2020/12/29 04:23:47;;;;;;;5.47;4.10;;;6.80;82.70;;;;;;4996753;28;20059;-76
2020/12/29 04:26:13;;;;;;;5.25;4.22;;;6.80;82.60;;;;;;5018922;28;20088;-75
2020/12/29 04:28:39;;;;;;;4.95;3.97;;;6.80;82.80;;;;;;5021653;28;20033;-75
2020/12/29 04:31:09;;;;;;;4.93;3.70;;;6.80;82.60;;;;;;5021393;28;20076;-75
2020/12/29 04:33:35;;;;;;;5.55;4.18;;;6.80;82.70;;;;;;5045450;28;20057;-76
2020/12/29 04:36:00;;;;;;;4.80;3.90;;;6.80;82.60;;;;;;5034438;28;20448;-76
2020/12/29 04:38:26;;;;;;;4.07;3.50;;;6.80;82.60;;;;;;5013750;28;20059;-75
2020/12/29 04:40:53;;;;;;;6.32;4.20;;;6.80;82.60;;;;;;5039305;28;20053;-75
2020/12/29 04:43:20;;;;;;;5.20;4.28;;;6.80;82.60;;;;;;5030196;28;20104;-75
2020/12/29 04:45:45;;;;;;;5.38;4.18;;;6.80;82.60;;;;;;5014744;28;20044;-75
2020/12/29 04:48:12;;;;;;;6.00;4.22;;;6.80;82.60;;;;;;5039454;28;20121;-75
2020/12/29 04:50:38;;;;;;;5.45;4.40;;;6.80;82.60;;;;;;5046635;28;20088;-75
2020/12/29 04:53:07;;;;;;;5.40;4.40;;;6.80;82.60;;;;;;5037822;28;20032;-75
2020/12/29 04:55:36;;;;;;;5.00;4.32;;;6.80;82.70;;;;;;5037209;28;20044;-76
2020/12/29 04:58:02;;;;;;;5.60;4.13;;;6.80;82.70;;;;;;5043407;28;20075;-75
2020/12/29 05:00:28;;;;;;;4.82;3.75;;;6.80;82.70;;;;;;5037151;28;20520;-76
2020/12/29 05:02:54;;;;;;;4.55;3.78;;;6.80;82.60;;;;;;5041815;28;20021;-75
2020/12/29 05:05:23;;;;;;;5.10;4.18;;;6.80;82.70;;;;;;5033054;28;20521;-76
2020/12/29 05:07:49;;;;;;;4.97;3.83;;;6.80;82.70;;;;;;5062021;28;20108;-75
2020/12/29 05:10:15;;;;;;;5.93;4.45;;;6.80;82.60;;;;;;5050445;28;20091;-76
2020/12/29 05:12:48;;;;;;;5.35;4.18;;;6.80;82.70;;;;;;5038055;28;20037;-75
2020/12/29 05:15:15;;;;;;;5.03;3.90;;;6.80;82.70;;;;;;5034851;28;20021;-75
2020/12/29 05:17:40;;;;;;;6.13;4.07;;;6.80;82.70;;;;;;5045489;28;20034;-76
2020/12/29 05:20:06;;;;;;;5.30;4.28;;;6.80;82.70;;;;;;5029216;28;20038;-75
2020/12/29 05:22:36;;;;;;;5.35;3.95;;;6.80;82.60;;;;;;5034877;28;20032;-76
2020/12/29 05:25:04;;;;;;;5.25;4.40;;;6.80;82.70;;;;;;5033347;28;20021;-76
2020/12/29 05:27:33;;;;;;;5.15;4.10;;;6.80;82.70;;;;;;5051332;28;20033;-76
2020/12/29 05:29:59;;;;;;;4.78;3.78;;;6.80;82.70;;;;;;5047906;28;20032;-75
2020/12/29 05:32:25;;;;;;;5.03;4.20;;;6.80;82.70;;;;;;5034429;28;20036;-75
2020/12/29 05:34:56;;;;;;;5.70;4.22;;;6.80;82.70;;;;;;5034657;28;20033;-75
2020/12/29 05:37:24;;;;;;;5.57;4.43;;;6.80;82.70;;;;;;5043111;28;20048;-76
2020/12/29 05:39:50;;;;;;;5.35;4.50;;;6.80;82.80;;;;;;5035407;28;20095;-78
2020/12/29 05:42:25;;;;;;;5.47;4.57;;;6.70;82.70;;;;;;5048309;28;20033;-76
2020/12/29 05:44:52;;;;;;;5.50;4.25;;;6.80;82.80;;;;;;5020330;28;20532;-75
2020/12/29 05:47:20;;;;;;;5.68;4.68;;;6.80;82.70;;;;;;5037523;28;20025;-76
2020/12/29 05:49:45;;;;;;;5.63;4.57;;;6.70;83.30;;;;;;5033929;28;20069;-75
2020/12/29 05:52:12;;;;;;;5.25;4.38;;;6.70;82.60;;;;;;5042581;28;20061;-75
2020/12/29 05:54:40;;;;;;;5.60;4.32;;;6.70;82.70;;;;;;5037420;28;20026;-76
2020/12/29 05:57:06;;;;;;;5.57;4.15;;;6.80;82.80;;;;;;5047127;28;20401;-76
2020/12/29 05:59:31;;;;;;;6.10;4.38;;;6.80;82.70;;;;;;5043791;28;20033;-76
2020/12/29 06:01:59;;;;;;;5.85;4.55;;;6.80;82.70;;;;;;5038512;28;20037;-76
2020/12/29 06:04:25;;;;;;;6.15;4.63;;;6.70;82.70;;;;;;5049726;28;20505;-76
2020/12/29 06:06:51;;;;;;;5.70;4.38;;;6.70;82.70;;;;;;5033432;28;20044;-76
2020/12/29 06:09:20;;;;;;;5.72;4.45;;;6.70;82.70;;;;;;5051901;28;20029;-76
2020/12/29 06:11:54;;;;;;;5.60;4.22;;;6.80;82.70;;;;;;5047850;28;20076;-76
2020/12/29 06:14:25;;;;;;;5.28;4.30;;;6.80;82.80;;;;;;5053160;28;20033;-75
2020/12/29 06:16:52;;;;;;;5.65;3.95;;;6.70;82.60;;;;;;5025740;28;20486;-76
2020/12/29 06:19:28;;;;;;;6.30;4.97;;;6.80;82.70;;;;;;5039210;28;20037;-76
2020/12/29 06:22:21;;;;;;;6.05;4.75;;;6.80;82.70;;;;;;5029310;28;20029;-75
2020/12/29 06:24:47;;;;;;;6.88;4.90;;;6.70;82.80;;;;;;5033125;28;20033;-75
2020/12/29 06:27:13;;;;;;;6.25;4.85;;;6.70;82.60;;;;;;5040381;28;20079;-76
2020/12/29 06:29:45;;;;;;;6.32;4.82;;;6.80;82.70;;;;;;5055725;28;20098;-76
2020/12/29 06:32:16;;;;;;;6.80;4.95;;;6.80;82.80;;;;;;5033268;28;20405;-76
2020/12/29 06:34:46;;;;;;;7.07;5.25;;;6.70;82.70;;;;;;5048107;28;20053;-76
2020/12/29 06:37:26;;;;;;;7.07;4.55;;;6.70;82.70;;;;;;5042997;28;20013;-76
2020/12/29 06:40:00;;;;;;;7.28;5.13;;;6.80;82.80;;;;;;5031723;28;20358;-76
2020/12/29 06:42:27;;;;;;;7.25;5.53;;;6.80;83.40;;;;;;5036601;28;20049;-76
2020/12/29 06:44:55;;;;;;;6.68;5.30;;;6.70;82.70;;;;;;5031798;28;20493;-75
2020/12/29 06:47:22;;;;;;;7.32;5.47;;;6.70;82.70;;;;;;5035055;28;20045;-75
2020/12/29 06:49:49;;;;;;;7.38;5.03;;;6.70;82.70;;;;;;5044908;28;20028;-75
2020/12/29 06:52:28;;;;;;;6.95;5.10;;;6.80;82.80;;;;;;5029452;28;20036;-76
2020/12/29 06:54:57;;;;;;;6.70;5.22;;;6.80;82.80;;;;;;5041679;28;20431;-75
2020/12/29 06:57:50;;;;;;;7.10;5.35;;;6.70;82.80;;;;;;5018413;28;20021;-77
2020/12/29 07:00:21;;;;;;;7.50;5.45;;;6.80;82.90;;;;;;5036984;28;20439;-75
2020/12/29 07:02:51;;;;;;;7.25;5.38;;;6.70;82.60;;;;;;5039864;28;20029;-76
2020/12/29 07:05:18;;;;;;;8.45;5.95;;;6.70;82.60;;;;;;5045165;28;20053;-75
2020/12/29 07:07:55;;;;;;;7.60;5.75;;;6.70;82.60;;;;;;5045157;28;20027;-76
2020/12/29 07:10:26;;;;;;;7.90;5.63;;;6.70;82.70;;;;;;5042292;28;20029;-75
2020/12/29 07:12:52;;;;;;;7.88;6.03;;;6.80;82.70;;;;;;5047393;28;20423;-75
2020/12/29 07:15:22;;;;;;;8.07;6.07;;;6.80;83.10;;;;;;5031592;28;20032;-75
2020/12/29 07:18:02;;;;;;;8.05;6.13;;;6.70;82.70;;;;;;5041801;28;20033;-75
2020/12/29 07:20:33;;;;;;;7.88;6.20;;;6.70;82.80;;;;;;5039536;28;20048;-76
2020/12/29 07:23:09;;;;;;;8.25;6.13;;;6.70;82.70;;;;;;5045478;28;20018;-75
2020/12/29 07:25:36;;;;;;;8.43;6.03;;;6.70;82.80;;;;;;5034308;28;20091;-76
2020/12/29 07:28:05;;;;;;;8.32;6.20;;;6.80;82.70;;;;;;5040203;28;20037;-75
2020/12/29 07:30:31;;;;;;;8.00;5.97;;;6.80;82.80;;;;;;5028507;28;20449;-75
2020/12/29 07:33:07;;;;;;;7.10;5.47;;;6.80;82.80;;;;;;5046234;28;20025;-75
2020/12/29 07:35:36;;;;;;;7.60;5.95;;;6.80;82.80;;;;;;5050879;28;20025;-75
2020/12/29 07:38:13;;;;;;;7.50;6.00;;;6.80;82.70;;;;;;5046558;28;20558;-76
2020/12/29 07:40:39;;;;;;;7.57;5.45;;;6.70;82.80;;;;;;5033699;28;20029;-75
2020/12/29 07:43:05;;;;;;;8.73;6.35;;;6.80;82.70;;;;;;5019594;28;20553;-76
2020/12/29 07:45:32;;;;;;;8.43;6.60;;;6.80;82.70;;;;;;5041375;28;20051;-76
2020/12/29 07:47:59;;;;;;;7.68;5.60;;;6.80;82.80;;;;;;5050292;28;20025;-75
2020/12/29 07:50:26;;;;;;;8.20;6.18;;;6.80;82.70;;;;;;5027159;28;20047;-76
2020/12/29 07:53:00;;;;;;;7.40;5.65;;;6.80;82.70;;;;;;5034785;28;20053;-76
2020/12/29 07:55:26;;;;;;;7.38;5.57;;;6.80;82.80;;;;;;5043903;28;20040;-76
2020/12/29 07:57:51;;;;;;;7.45;5.55;;;6.80;82.70;;;;;;5029185;28;20434;-77
2020/12/29 08:00:17;;;;;;;7.88;5.93;;;6.80;82.70;;;;;;5010776;28;20032;-77
2020/12/29 08:02:51;;;;;;;8.48;6.25;;;6.80;82.70;;;;;;4990709;28;20033;-77
2020/12/29 08:05:29;;;;;;;7.65;5.70;;;6.80;82.80;;;;;;5041223;28;20022;-79
2020/12/29 08:08:00;;;;;;;8.40;5.88;;;6.80;82.80;;;;;;5032339;28;20501;-77
2020/12/29 08:10:28;;;;;;;8.40;5.90;;;6.80;82.80;;;;;;5030822;28;20040;-76
2020/12/29 08:12:56;;;;;;;8.25;5.75;;;6.80;82.80;;;;;;5047859;28;20032;-77
2020/12/29 08:15:24;;;;;;;7.70;5.75;;;6.80;82.80;;;;;;5034453;28;20505;-76
2020/12/29 08:18:08;;;;;;;7.28;5.30;;;6.80;82.80;;;;;;5045979;28;20405;-77
2020/12/29 08:21:00;;;;;;;9.38;6.13;;;6.80;82.90;;;;;;5031742;28;20040;-77
2020/12/29 08:23:28;;;;;;;7.90;5.47;;;6.80;82.80;;;;;;5041480;28;20663;-77
2020/12/29 08:25:59;;;;;;;8.43;5.70;;;6.80;82.70;;;;;;5047360;28;20096;-77
2020/12/29 08:28:28;;;;;;;8.10;5.68;;;6.80;82.80;;;;;;5049998;28;20502;-77
2020/12/29 08:30:55;;;;;;;9.32;6.47;;;6.70;82.70;;;;;;5040816;28;20047;-76
2020/12/29 08:33:24;;;;;;;7.63;5.50;;;6.80;82.70;;;;;;5031223;28;20461;-77
2020/12/29 08:36:11;;;;;;;8.30;5.85;;;6.80;82.80;;;;;;5031919;28;20151;-78
2020/12/29 08:38:40;;;;;;;8.45;5.80;;;6.80;82.80;;;;;;5048335;28;20037;-76
2020/12/29 08:41:06;;;;;;;8.07;5.60;;;6.80;82.70;;;;;;5032056;28;20029;-76
2020/12/29 08:43:39;;;;;;;7.30;5.32;;;6.80;82.70;;;;;;5048868;28;20048;-76
2020/12/29 08:46:06;;;;;;;9.10;6.45;;;6.80;82.80;;;;;;5048198;28;20094;-74
2020/12/29 08:48:33;;;;;;;8.57;6.15;;;6.80;82.80;;;;;;5031032;28;20102;-74
2020/12/29 08:51:00;;;;;;;8.93;6.18;;;6.80;82.80;;;;;;5035746;28;20040;-77
2020/12/29 08:53:26;;;;;;;9.05;6.22;;;6.80;82.80;;;;;;5047026;28;20424;-77
2020/12/29 08:55:53;;;;;;;8.40;5.68;;;6.80;82.80;;;;;;5031048;28;20470;-78
2020/12/29 08:58:26;;;;;;;8.88;5.95;;;6.70;82.70;;;;;;5035647;28;20040;-77
2020/12/29 09:00:53;;;;;;;8.95;6.22;;;6.70;82.80;;;;;;5021141;28;20025;-77
2020/12/29 09:03:23;;;;;;;9.02;6.38;;;6.70;82.80;;;;;;5031156;28;20032;-77
2020/12/29 09:05:50;;;;;;;9.13;5.88;;;6.70;82.80;;;;;;5015273;28;20132;-77
2020/12/29 09:08:27;;;;;;;9.85;6.40;;;6.80;82.80;;;;;;5031508;28;20037;-77
2020/12/29 09:11:11;;;;;;;8.88;5.95;;;6.80;82.90;;;;;;5033460;28;20036;-77
2020/12/29 09:13:37;;;;;;;8.93;5.90;;;6.70;82.80;;;;;;5027507;28;20033;-77
2020/12/29 09:16:11;;;;;;;9.20;6.05;;;6.80;82.80;;;;;;5032819;28;20033;-78
2020/12/29 09:18:41;;;;;;;10.35;6.35;;;6.80;82.80;;;;;;5051116;28;20090;-76
2020/12/29 09:21:26;;;;;;;9.75;6.30;;;6.80;82.80;;;;;;5056515;28;20029;-77
2020/12/29 09:24:03;;;;;;;9.27;5.85;;;6.70;82.80;;;;;;5041996;28;20033;-76
2020/12/29 09:26:29;;;;;;;8.60;5.82;;;6.70;82.80;;;;;;5050170;28;20031;-76
2020/12/29 09:28:56;;;;;;;10.75;6.45;;;6.70;82.80;;;;;;5051541;28;20040;-77
2020/12/29 09:31:29;;;;;;;9.80;6.53;;;6.80;82.90;;;;;;5032765;28;20041;-76
2020/12/29 09:33:57;;;;;;;9.50;6.32;;;6.70;82.80;;;;;;5030612;28;20458;-77
2020/12/29 09:36:27;;;;;;;9.85;6.57;;;6.70;82.80;;;;;;5057366;28;20021;-76
2020/12/29 09:38:54;;;;;;;9.80;6.82;;;6.70;82.80;;;;;;5047701;28;20095;-75
2020/12/29 09:41:21;;;;;;;9.45;6.40;;;6.70;82.80;;;;;;5053053;28;20033;-76
2020/12/29 09:43:48;;;;;;;9.48;6.38;;;6.70;82.80;;;;;;5032155;28;20053;-77
2020/12/29 09:46:14;;;;;;;9.77;6.60;;;6.70;82.80;;;;;;5038806;28;20029;-76
2020/12/29 09:48:41;;;;;;;11.38;6.80;;;6.70;82.80;;;;;;5049982;28;20055;-75
2020/12/29 09:51:09;;;;;;;9.68;6.63;;;6.70;82.80;;;;;;5042297;28;20032;-75
2020/12/29 09:53:35;;;;;;;9.50;6.38;;;6.70;82.80;;;;;;5033058;28;20071;-75
2020/12/29 09:56:00;;;;;;;9.95;6.80;;;6.70;82.90;;;;;;5039581;28;20033;-75
2020/12/29 09:58:26;;;;;;;9.50;6.50;;;6.70;82.80;;;;;;5031353;28;20117;-75
2020/12/29 10:00:52;;;;;;;10.18;7.15;;;6.70;82.90;;;;;;5037041;28;20033;-75
2020/12/29 10:03:18;;;;;;;9.52;6.57;;;6.70;82.80;;;;;;5032232;28;20025;-75
2020/12/29 10:05:44;;;;;;;10.00;6.43;;;6.70;82.80;;;;;;5048139;28;20216;-74
2020/12/29 10:08:11;;;;;;;9.75;6.53;;;6.70;82.80;;;;;;5046093;28;20025;-75
2020/12/29 10:10:37;;;;;;;10.15;6.72;;;6.70;82.80;;;;;;5039581;28;20017;-75
2020/12/29 10:13:03;;;;;;;8.95;6.15;;;6.70;82.80;;;;;;5033554;28;20036;-75
2020/12/29 10:15:29;;;;;;;9.57;6.60;;;6.70;82.80;;;;;;5040761;28;20021;-77
2020/12/29 10:17:55;;;;;;;10.40;6.90;;;6.70;82.80;;;;;;5033229;28;20024;-75
2020/12/29 10:20:21;;;;;;;11.00;6.78;;;6.70;82.80;;;;;;5046053;28;20489;-74
2020/12/29 10:22:47;;;;;;;9.68;6.70;;;6.70;82.80;;;;;;5043486;28;20040;-75
2020/12/29 10:25:16;;;;;;;9.18;6.32;;;6.70;82.80;;;;;;5032118;28;20029;-74
2020/12/29 10:27:45;;;;;;;8.93;6.10;;;6.70;82.80;;;;;;5046486;28;20393;-75
2020/12/29 10:30:12;;;;;;;8.65;6.18;;;6.70;83.50;;;;;;5050760;28;20135;-75
2020/12/29 10:32:38;;;;;;;9.18;6.25;;;6.70;82.80;;;;;;5049244;28;20036;-78
2020/12/29 10:35:05;;;;;;;9.27;6.40;;;6.70;82.80;;;;;;5057818;28;20033;-76
2020/12/29 10:37:31;;;;;;;9.77;6.50;;;6.70;82.80;;;;;;5028554;28;20049;-77
2020/12/29 10:39:57;;;;;;;9.25;5.95;;;6.70;82.80;;;;;;5032847;28;20090;-75
2020/12/29 10:42:23;;;;;;;9.35;6.75;;;6.70;82.80;;;;;;4997426;28;20514;-75
2020/12/29 10:44:49;;;;;;;10.43;6.75;;;6.70;82.80;;;;;;5027682;28;20021;-75
2020/12/29 10:47:14;;;;;;;9.90;5.70;;;6.70;82.80;;;;;;5032080;28;20044;-75
2020/12/29 10:49:41;;;;;;;8.90;6.10;;;6.70;82.80;;;;;;5023186;28;20024;-76
2020/12/29 10:52:07;;;;;;;9.15;6.20;;;6.80;82.80;;;;;;5024936;28;20042;-78
2020/12/29 10:54:33;;;;;;;9.27;6.35;;;6.70;82.80;;;;;;5042237;28;20032;-78
2020/12/29 10:56:58;;;;;;;8.73;6.22;;;6.70;82.80;;;;;;5010916;28;20473;-75
2020/12/29 10:59:24;;;;;;;8.52;5.95;;;6.70;82.80;;;;;;5019617;28;20115;-77
2020/12/29 11:01:55;;;;;;;9.15;6.28;;;6.70;82.80;;;;;;5041472;28;20029;-75
2020/12/29 11:04:25;;;;;;;8.50;6.00;;;6.70;82.80;;;;;;5030516;28;20543;-77
2020/12/29 11:06:51;;;;;;;8.82;6.22;;;6.70;82.80;;;;;;5027308;28;20025;-75
2020/12/29 11:09:17;;;;;;;8.85;5.80;;;6.70;82.80;;;;;;5035533;28;20029;-76
2020/12/29 11:11:43;;;;;;;9.13;6.35;;;6.70;82.90;;;;;;5042056;28;20504;-76
2020/12/29 11:14:09;;;;;;;9.68;6.82;;;6.80;82.90;;;;;;5030155;28;20025;-76
2020/12/29 11:16:34;;;;;;;8.93;6.18;;;6.70;82.80;;;;;;5029403;28;20029;-76
2020/12/29 11:19:00;;;;;;;8.75;6.25;;;6.80;82.90;;;;;;5042861;28;20029;-75
2020/12/29 11:21:26;;;;;;;9.27;6.43;;;6.70;82.80;;;;;;5031130;28;20029;-76
2020/12/29 11:23:51;;;;;;;8.98;5.82;;;6.70;82.80;;;;;;5022294;28;20519;-75
2020/12/29 11:26:20;;;;;;;8.93;6.50;;;6.80;82.90;;;;;;5049204;28;20128;-75
2020/12/29 11:28:47;;;;;;;8.45;5.88;;;6.80;82.90;;;;;;5048598;28;20401;-76
2020/12/29 11:31:17;;;;;;;8.40;5.93;;;6.80;82.80;;;;;;5029812;28;20431;-76
2020/12/29 11:33:44;;;;;;;9.45;6.85;;;6.80;82.90;;;;;;5035986;28;20518;-75
2020/12/29 11:36:14;;;;;;;8.35;6.00;;;6.80;82.80;;;;;;5035929;28;20038;-75
2020/12/29 11:38:39;;;;;;;8.65;5.72;;;6.80;82.80;;;;;;5016768;28;20049;-75
2020/12/29 11:41:05;;;;;;;8.93;6.22;;;6.80;82.80;;;;;;5040270;28;20041;-76
2020/12/29 11:43:31;;;;;;;8.85;6.18;;;6.80;82.80;;;;;;5015109;28;20106;-76
2020/12/29 11:45:56;;;;;;;9.02;6.28;;;6.80;82.80;;;;;;5044504;28;20057;-75
2020/12/29 11:48:22;;;;;;;9.00;6.00;;;6.80;82.80;;;;;;5025456;28;20036;-75
2020/12/29 11:50:48;;;;;;;8.77;6.35;;;6.80;82.80;;;;;;5031146;28;20033;-75
2020/12/29 11:53:14;;;;;;;9.57;6.72;;;6.80;82.80;;;;;;5028969;28;20033;-76
2020/12/29 11:55:40;;;;;;;9.20;6.07;;;6.80;82.80;;;;;;5032972;28;20029;-76
2020/12/29 11:58:06;;;;;;;8.82;6.47;;;6.80;82.80;;;;;;5038959;28;20025;-76
2020/12/29 12:00:32;;;;;;;8.75;6.32;;;6.80;82.80;;;;;;5046727;28;20041;-76
2020/12/29 12:02:58;;;;;;;8.98;6.00;;;6.80;82.80;;;;;;5022127;28;20063;-75
2020/12/29 12:05:24;;;;;;;7.93;5.53;;;6.80;82.80;;;;;;5044146;28;20013;-76
2020/12/29 12:07:50;;;;;;;9.43;6.13;;;6.90;82.90;;;;;;5012961;28;20025;-75
2020/12/29 12:10:16;;;;;;;8.88;6.38;;;6.80;82.80;;;;;;5029204;28;20033;-75
2020/12/29 12:12:41;;;;;;;8.98;6.30;;;6.90;82.90;;;;;;5038162;28;20029;-75
2020/12/29 12:15:08;;;;;;;8.85;6.25;;;6.90;82.90;;;;;;5029930;28;20033;-76
2020/12/29 12:17:34;;;;;;;9.48;6.20;;;6.80;83.50;;;;;;5024027;28;20041;-75
2020/12/29 12:20:00;;;;;;;8.43;6.05;;;6.90;82.80;;;;;;5042328;28;20385;-75
2020/12/29 12:22:25;;;;;;;8.75;6.15;;;6.90;82.80;;;;;;5034474;28;20385;-76
2020/12/29 12:24:51;;;;;;;10.45;6.82;;;6.90;82.80;;;;;;5029530;28;20031;-76
2020/12/29 12:27:17;;;;;;;9.90;6.32;;;6.90;82.80;;;;;;5048611;28;20043;-75
2020/12/29 12:29:43;;;;;;;9.32;6.40;;;6.90;82.80;;;;;;5031577;28;20477;-76
2020/12/29 12:32:09;;;;;;;9.63;7.05;;;6.90;82.80;;;;;;5049349;28;20020;-75
2020/12/29 12:34:36;;;;;;;9.80;6.70;;;6.90;82.70;;;;;;5042856;28;20414;-75
2020/12/29 12:37:02;;;;;;;10.93;7.18;;;7.00;82.80;;;;;;5030564;28;20029;-75
2020/12/29 12:39:28;;;;;;;10.63;7.65;;;6.90;82.70;;;;;;5034025;28;20502;-75
2020/12/29 12:41:53;;;;;;;11.60;7.78;;;7.00;82.80;;;;;;5048225;28;20033;-75
2020/12/29 12:44:19;;;;;;;10.45;7.10;;;6.90;82.70;;;;;;5049053;28;20447;-75
2020/12/29 12:46:45;;;;;;;9.50;6.97;;;6.90;82.70;;;;;;5047008;28;20045;-75
2020/12/29 12:49:11;;;;;;;10.80;7.07;;;7.00;82.80;;;;;;5044119;28;20037;-75
2020/12/29 12:51:44;;;;;;;9.90;7.20;;;7.00;82.80;;;;;;5040955;28;20350;-76
2020/12/29 12:54:09;;;;;;;9.25;6.40;;;7.00;82.80;;;;;;5048947;28;20049;-76
2020/12/29 12:56:42;;;;;;;10.27;7.15;;;7.00;82.70;;;;;;5039258;28;20724;-75
2020/12/29 12:59:11;;;;;;;9.82;6.78;;;7.00;82.70;;;;;;5024815;28;20040;-75